Time,TemperatureF,DewpointF,PressureIn,WindDirection,WindDirectionDegrees,WindSpeedMPH,WindSpeedGustMPH,Humidity,HourlyPrecipIn,Conditions,Clouds,dailyrainin,SoftwareType,DateUTC
2013-02-01 00:00:00,47.8,29.0,30.52,East,84,5.0,7.0,48,0.00,,,0.00,Wunderground v.1.15,2013-02-01 08:00:00,
2013-02-01 00:05:00,47.7,28.9,30.52,East,79,5.0,10.0,48,0.00,,,0.00,Wunderground v.1.15,2013-02-01 08:05:00,
2013-02-01 00:15:00,47.8,29.0,30.52,East,84,6.0,10.0,48,0.00,,,0.00,Wunderground v.1.15,2013-02-01 08:15:00,
2013-02-01 00:20:00,48.1,29.3,30.52,East,84,6.0,6.0,48,0.00,,,0.00,Wunderground v.1.15,2013-02-01 08:20:00,
2013-02-01 00:30:00,47.6,28.9,30.52,East,84,6.0,10.0,48,0.00,,,0.00,Wunderground v.1.15,2013-02-01 08:30:00,
2013-02-01 00:35:00,47.7,28.9,30.52,East,84,6.0,10.0,48,0.00,,,0.00,Wunderground v.1.15,2013-02-01 08:35:00,
2013-02-01 00:45:00,47.6,29.4,30.51,East,80,6.0,9.0,49,0.00,,,0.00,Wunderground v.1.15,2013-02-01 08:45:00,
2013-02-01 00:50:00,47.4,29.2,30.52,East,84,6.0,9.0,49,0.00,,,0.00,Wunderground v.1.15,2013-02-01 08:50:00,
2013-02-01 01:00:00,47.4,29.2,30.52,East,84,6.0,6.0,49,0.00,,,0.00,Wunderground v.1.15,2013-02-01 09:00:00,
2013-02-01 01:05:00,47.5,29.3,30.52,East,84,6.0,7.0,49,0.00,,,0.00,Wunderground v.1.15,2013-02-01 09:05:00,
2013-02-01 01:10:00,47.6,29.4,30.52,East,84,6.0,9.0,49,0.00,,,0.00,Wunderground v.1.15,2013-02-01 09:10:00,
2013-02-01 01:20:00,47.9,29.6,30.52,East,84,5.0,5.0,49,0.00,,,0.00,Wunderground v.1.15,2013-02-01 09:20:00,
2013-02-01 01:30:00,48.1,29.3,30.52,East,80,5.0,9.0,48,0.00,,,0.00,Wunderground v.1.15,2013-02-01 09:30:00,
2013-02-01 01:35:00,48.1,29.8,30.52,East,84,5.0,9.0,49,0.00,,,0.00,Wunderground v.1.15,2013-02-01 09:35:00,
2013-02-01 01:45:00,47.3,29.6,30.52,East,84,5.0,9.0,50,0.00,,,0.00,Wunderground v.1.15,2013-02-01 09:45:00,
2013-02-01 01:50:00,45.8,29.2,30.52,East,84,5.0,9.0,52,0.00,,,0.00,Wunderground v.1.15,2013-02-01 09:50:00,
2013-02-01 02:00:00,46.9,29.7,30.52,East,89,7.0,9.0,51,0.00,,,0.00,Wunderground v.1.15,2013-02-01 10:00:00,
2013-02-01 02:05:00,47.4,29.7,30.52,East,84,6.0,9.0,50,0.00,,,0.00,Wunderground v.1.15,2013-02-01 10:05:00,
2013-02-01 02:10:00,47.6,29.4,30.51,East,84,6.0,6.0,49,0.00,,,0.00,Wunderground v.1.15,2013-02-01 10:10:00,
2013-02-01 02:15:00,47.6,29.4,30.52,East,80,6.0,9.0,49,0.00,,,0.00,Wunderground v.1.15,2013-02-01 10:15:00,
2013-02-01 02:25:00,47.3,29.1,30.52,East,84,6.0,9.0,49,0.00,,,0.00,Wunderground v.1.15,2013-02-01 10:25:00,
2013-02-01 02:30:00,47.4,29.2,30.51,East,84,6.0,6.0,49,0.00,,,0.00,Wunderground v.1.15,2013-02-01 10:30:00,
2013-02-01 02:35:00,47.4,29.2,30.51,East,84,4.0,9.0,49,0.00,,,0.00,Wunderground v.1.15,2013-02-01 10:35:00,
2013-02-01 02:45:00,47.7,28.9,30.51,East,84,5.0,9.0,48,0.00,,,0.00,Wunderground v.1.15,2013-02-01 10:45:00,
2013-02-01 02:50:00,47.4,28.7,30.51,ENE,78,5.0,9.0,48,0.00,,,0.00,Wunderground v.1.15,2013-02-01 10:50:00,
2013-02-01 02:55:00,47.3,28.6,30.51,East,79,5.0,9.0,48,0.00,,,0.00,Wunderground v.1.15,2013-02-01 10:55:00,
2013-02-01 03:00:00,47.1,28.4,30.51,East,84,5.0,9.0,48,0.00,,,0.00,Wunderground v.1.15,2013-02-01 11:00:00,
2013-02-01 03:10:00,46.7,28.5,30.50,East,84,4.0,8.0,49,0.00,,,0.00,Wunderground v.1.15,2013-02-01 11:10:00,
2013-02-01 03:20:00,47.1,28.4,30.50,East,84,4.0,8.0,48,0.00,,,0.00,Wunderground v.1.15,2013-02-01 11:20:00,
2013-02-01 03:30:00,47.5,28.3,30.51,East,84,4.0,4.0,47,0.00,,,0.00,Wunderground v.1.15,2013-02-01 11:30:00,
2013-02-01 03:35:00,47.6,28.3,30.51,East,84,4.0,7.0,47,0.00,,,0.00,Wunderground v.1.15,2013-02-01 11:35:00,
2013-02-01 03:40:00,47.2,28.0,30.51,East,84,4.0,4.0,47,0.00,,,0.00,Wunderground v.1.15,2013-02-01 11:40:00,
2013-02-01 03:50:00,46.2,28.1,30.51,East,84,3.0,7.0,49,0.00,,,0.00,Wunderground v.1.15,2013-02-01 11:50:00,
2013-02-01 04:00:00,44.7,28.1,30.51,East,84,6.0,8.0,52,0.00,,,0.00,Wunderground v.1.15,2013-02-01 12:00:00,
2013-02-01 04:05:00,46.1,28.5,30.51,East,84,7.0,10.0,50,0.00,,,0.00,Wunderground v.1.15,2013-02-01 12:05:00,
2013-02-01 04:15:00,47.1,28.4,30.51,East,79,5.0,10.0,48,0.00,,,0.00,Wunderground v.1.15,2013-02-01 12:15:00,
2013-02-01 04:20:00,47.0,28.3,30.51,East,84,6.0,10.0,48,0.00,,,0.00,Wunderground v.1.15,2013-02-01 12:20:00,
2013-02-01 04:30:00,46.9,28.2,30.51,East,84,7.0,7.0,48,0.00,,,0.00,Wunderground v.1.15,2013-02-01 12:30:00,
2013-02-01 04:40:00,47.1,28.4,30.51,East,84,5.0,9.0,48,0.00,,,0.00,Wunderground v.1.15,2013-02-01 12:40:00,
2013-02-01 04:45:00,47.4,28.7,30.51,East,79,5.0,9.0,48,0.00,,,0.00,Wunderground v.1.15,2013-02-01 12:45:00,
2013-02-01 04:50:00,46.8,28.1,30.51,East,79,5.0,9.0,48,0.00,,,0.00,Wunderground v.1.15,2013-02-01 12:50:00,
2013-02-01 05:00:00,46.8,28.6,30.51,East,84,5.0,9.0,49,0.00,,,0.00,Wunderground v.1.15,2013-02-01 13:00:00,
2013-02-01 05:05:00,47.5,28.8,30.51,East,84,5.0,9.0,48,0.00,,,0.00,Wunderground v.1.15,2013-02-01 13:05:00,
2013-02-01 05:15:00,45.7,28.1,30.51,East,84,5.0,8.0,50,0.00,,,0.00,Wunderground v.1.15,2013-02-01 13:15:00,
2013-02-01 05:20:00,44.5,28.0,30.51,East,80,6.0,8.0,52,0.00,,,0.00,Wunderground v.1.15,2013-02-01 13:20:00,
2013-02-01 05:25:00,45.3,28.2,30.51,East,89,7.0,8.0,51,0.00,,,0.00,Wunderground v.1.15,2013-02-01 13:25:00,
2013-02-01 05:30:00,45.9,28.3,30.51,East,80,7.0,7.0,50,0.00,,,0.00,Wunderground v.1.15,2013-02-01 13:30:00,
2013-02-01 05:35:00,46.3,28.2,30.51,East,84,6.0,10.0,49,0.00,,,0.00,Wunderground v.1.15,2013-02-01 13:35:00,
2013-02-01 09:00:00,55.6,28.4,30.55,North,349,1.0,1.0,35,0.00,,,0.00,Wunderground v.1.15,2013-02-01 17:00:00,
2013-02-01 09:05:00,55.7,28.4,30.55,NNW,348,1.0,4.0,35,0.00,,,0.00,Wunderground v.1.15,2013-02-01 17:05:00,
2013-02-01 09:15:00,55.7,29.1,30.55,NNW,338,1.0,5.0,36,0.00,,,0.00,Wunderground v.1.15,2013-02-01 17:15:00,
2013-02-01 09:20:00,55.7,28.4,30.55,NNW,333,2.0,2.0,35,0.00,,,0.00,Wunderground v.1.15,2013-02-01 17:20:00,
2013-02-01 09:30:00,56.1,29.5,30.55,NNW,329,3.0,5.0,36,0.00,,,0.00,Wunderground v.1.15,2013-02-01 17:30:00,
2013-02-01 09:35:00,56.1,29.5,30.55,North,350,3.0,6.0,36,0.00,,,0.00,Wunderground v.1.15,2013-02-01 17:35:00,
2013-02-01 09:45:00,56.3,29.7,30.55,NNW,335,4.0,8.0,36,0.00,,,0.00,Wunderground v.1.15,2013-02-01 17:45:00,
2013-02-01 09:50:00,56.4,29.7,30.55,NNW,333,3.0,8.0,36,0.00,,,0.00,Wunderground v.1.15,2013-02-01 17:50:00,
2013-02-01 09:55:00,56.4,29.7,30.55,NNW,334,3.0,8.0,36,0.00,,,0.00,Wunderground v.1.15,2013-02-01 17:55:00,
2013-02-01 10:00:00,56.6,29.9,30.55,NW,317,3.0,3.0,36,0.00,,,0.00,Wunderground v.1.15,2013-02-01 18:00:00,
2013-02-01 10:05:00,56.8,30.1,30.56,NNW,328,2.0,8.0,36,0.00,,,0.00,Wunderground v.1.15,2013-02-01 18:05:00,
2013-02-01 10:15:00,56.9,30.2,30.56,NNW,328,1.0,8.0,36,0.00,,,0.00,Wunderground v.1.15,2013-02-01 18:15:00,
2013-02-01 10:20:00,56.9,30.2,30.56,NW,325,1.0,1.0,36,0.00,,,0.00,Wunderground v.1.15,2013-02-01 18:20:00,
2013-02-01 10:30:00,57.4,29.9,30.55,North,356,1.0,8.0,35,0.00,,,0.00,Wunderground v.1.15,2013-02-01 18:30:00,
2013-02-01 10:35:00,57.6,30.1,30.55,North,358,1.0,8.0,35,0.00,,,0.00,Wunderground v.1.15,2013-02-01 18:35:00,
2013-02-01 10:40:00,57.7,30.2,30.55,NNW,348,1.0,1.0,35,0.00,,,0.00,Wunderground v.1.15,2013-02-01 18:40:00,
2013-02-01 10:45:00,57.9,29.7,30.55,North,351,1.0,2.0,34,0.00,,,0.00,Wunderground v.1.15,2013-02-01 18:45:00,
2013-02-01 10:50:00,57.6,30.1,30.55,NNW,335,2.0,6.0,35,0.00,,,0.00,Wunderground v.1.15,2013-02-01 18:50:00,
2013-02-01 11:00:00,57.6,30.1,30.55,NNW,344,3.0,3.0,35,0.00,,,0.00,Wunderground v.1.15,2013-02-01 19:00:00,
2013-02-01 11:05:00,57.7,30.2,30.54,WNW,298,3.0,8.0,35,0.00,,,0.00,Wunderground v.1.15,2013-02-01 19:05:00,
2013-02-01 11:10:00,57.9,30.4,30.54,WNW,298,3.0,3.0,35,0.00,,,0.00,Wunderground v.1.15,2013-02-01 19:10:00,
2013-02-01 11:20:00,58.4,30.1,30.54,NNE,19,2.0,2.0,34,0.00,,,0.00,Wunderground v.1.15,2013-02-01 19:20:00,
2013-02-01 11:25:00,58.5,30.2,30.54,NNW,329,2.0,8.0,34,0.00,,,0.00,Wunderground v.1.15,2013-02-01 19:25:00,
2013-02-01 11:30:00,58.3,30.0,30.54,North,355,2.0,8.0,34,0.00,,,0.00,Wunderground v.1.15,2013-02-01 19:30:00,
2013-02-01 11:35:00,58.1,29.8,30.53,NNE,18,3.0,9.0,34,0.00,,,0.00,Wunderground v.1.15,2013-02-01 19:35:00,
2013-02-01 11:45:00,58.6,29.6,30.53,NW,325,2.0,9.0,33,0.00,,,0.00,Wunderground v.1.15,2013-02-01 19:45:00,
2013-02-01 11:50:00,58.8,29.7,30.53,NNE,15,2.0,2.0,33,0.00,,,0.00,Wunderground v.1.15,2013-02-01 19:50:00,
2013-02-01 12:00:00,58.9,29.8,30.53,North,358,1.0,1.0,33,0.00,,,0.00,Wunderground v.1.15,2013-02-01 20:00:00,
2013-02-01 12:05:00,59.0,29.9,30.53,NNW,337,1.0,7.0,33,0.00,,,0.00,Wunderground v.1.15,2013-02-01 20:05:00,
2013-02-01 12:10:00,59.1,30.0,30.53,North,356,3.0,7.0,33,0.00,,,0.00,Wunderground v.1.15,2013-02-01 20:10:00,
2013-02-01 12:20:00,59.4,30.3,30.52,NW,304,3.0,7.0,33,0.00,,,0.00,Wunderground v.1.15,2013-02-01 20:20:00,
2013-02-01 12:30:00,59.5,30.3,30.52,West,271,2.0,2.0,33,0.00,,,0.00,Wunderground v.1.15,2013-02-01 20:30:00,
2013-02-01 12:35:00,59.8,29.9,30.51,NNW,329,1.0,3.0,32,0.00,,,0.00,Wunderground v.1.15,2013-02-01 20:35:00,
2013-02-01 12:45:00,59.8,29.1,30.51,NW,321,5.0,9.0,31,0.00,,,0.00,Wunderground v.1.15,2013-02-01 20:45:00,
2013-02-01 12:50:00,60.0,30.0,30.51,NW,306,3.0,3.0,32,0.00,,,0.00,Wunderground v.1.15,2013-02-01 20:50:00,
2013-02-01 12:55:00,60.4,30.4,30.51,WNW,291,3.0,4.0,32,0.00,,,0.00,Wunderground v.1.15,2013-02-01 20:55:00,
2013-02-01 13:00:00,60.5,29.7,30.51,West,267,2.0,2.0,31,0.00,,,0.00,Wunderground v.1.15,2013-02-01 21:00:00,
2013-02-01 13:10:00,60.7,29.9,30.50,WNW,298,2.0,2.0,31,0.00,,,0.00,Wunderground v.1.15,2013-02-01 21:10:00,
2013-02-01 13:15:00,60.7,29.9,30.50,NW,319,2.0,7.0,31,0.00,,,0.00,Wunderground v.1.15,2013-02-01 21:15:00,
2013-02-01 13:20:00,60.3,29.5,30.50,NNW,346,3.0,3.0,31,0.00,,,0.00,Wunderground v.1.15,2013-02-01 21:20:00,
2013-02-01 13:30:00,60.5,29.7,30.50,NW,318,2.0,9.0,31,0.00,,,0.00,Wunderground v.1.15,2013-02-01 21:30:00,
2013-02-01 13:35:00,60.8,29.9,30.50,West,263,3.0,9.0,31,0.00,,,0.00,Wunderground v.1.15,2013-02-01 21:35:00,
2013-02-01 13:40:00,61.0,30.1,30.50,NNW,343,2.0,2.0,31,0.00,,,0.00,Wunderground v.1.15,2013-02-01 21:40:00,
2013-02-01 13:50:00,61.4,30.5,30.50,NW,321,3.0,9.0,31,0.00,,,0.00,Wunderground v.1.15,2013-02-01 21:50:00,
2013-02-01 13:55:00,61.3,29.6,30.49,NNW,327,4.0,9.0,30,0.00,,,0.00,Wunderground v.1.15,2013-02-01 21:55:00,
2013-02-01 14:00:00,61.2,30.3,30.49,NW,319,5.0,5.0,31,0.00,,,0.00,Wunderground v.1.15,2013-02-01 22:00:00,
2013-02-01 14:05:00,61.4,29.7,30.49,North,356,4.0,9.0,30,0.00,,,0.00,Wunderground v.1.15,2013-02-01 22:05:00,
2013-02-01 14:15:00,61.4,29.7,30.50,North,353,3.0,9.0,30,0.00,,,0.00,Wunderground v.1.15,2013-02-01 22:15:00,
2013-02-01 14:20:00,61.3,29.6,30.49,NNW,331,3.0,9.0,30,0.00,,,0.00,Wunderground v.1.15,2013-02-01 22:20:00,
2013-02-01 14:30:00,60.9,30.0,30.50,North,350,4.0,9.0,31,0.00,,,0.00,Wunderground v.1.15,2013-02-01 22:30:00,
2013-02-01 14:35:00,60.8,29.9,30.49,NW,326,5.0,9.0,31,0.00,,,0.00,Wunderground v.1.15,2013-02-01 22:35:00,
2013-02-01 14:45:00,61.0,30.1,30.49,NW,322,4.0,9.0,31,0.00,,,0.00,Wunderground v.1.15,2013-02-01 22:45:00,
2013-02-01 14:55:00,61.1,29.4,30.49,North,354,5.0,5.0,30,0.00,,,0.00,Wunderground v.1.15,2013-02-01 22:55:00,
2013-02-01 15:00:00,61.1,29.4,30.49,NNW,333,4.0,4.0,30,0.00,,,0.00,Wunderground v.1.15,2013-02-01 23:00:00,
2013-02-01 15:05:00,61.4,29.7,30.49,NNW,333,2.0,7.0,30,0.00,,,0.00,Wunderground v.1.15,2013-02-01 23:05:00,
2013-02-01 15:15:00,61.6,29.8,30.49,North,1,1.0,7.0,30,0.00,,,0.00,Wunderground v.1.15,2013-02-01 23:15:00,
2013-02-01 15:20:00,61.8,29.2,30.49,NNW,339,1.0,7.0,29,0.00,,,0.00,Wunderground v.1.15,2013-02-01 23:20:00,
2013-02-01 15:30:00,61.3,29.6,30.49,NNE,13,3.0,7.0,30,0.00,,,0.00,Wunderground v.1.15,2013-02-01 23:30:00,
2013-02-01 15:35:00,61.1,29.4,30.49,NNW,335,3.0,7.0,30,0.00,,,0.00,Wunderground v.1.15,2013-02-01 23:35:00,
2013-02-01 15:45:00,61.3,29.6,30.48,NNW,338,4.0,5.0,30,0.00,,,0.00,Wunderground v.1.15,2013-02-01 23:45:00,
2013-02-01 15:50:00,61.2,29.5,30.48,North,355,5.0,7.0,30,0.00,,,0.00,Wunderground v.1.15,2013-02-01 23:50:00,
2013-02-01 16:00:00,60.8,29.1,30.49,North,350,4.0,7.0,30,0.00,,,0.00,Wunderground v.1.15,2013-02-02 00:00:00,
2013-02-01 16:05:00,60.7,29.1,30.48,NNW,346,4.0,8.0,30,0.00,,,0.00,Wunderground v.1.15,2013-02-02 00:05:00,
2013-02-01 16:15:00,60.3,29.5,30.49,NNW,348,3.0,8.0,31,0.00,,,0.00,Wunderground v.1.15,2013-02-02 00:15:00,
2013-02-01 16:20:00,60.3,29.5,30.49,NNW,348,2.0,2.0,31,0.00,,,0.00,Wunderground v.1.15,2013-02-02 00:20:00,
2013-02-01 16:30:00,60.2,29.4,30.49,NNW,348,0.0,8.0,31,0.00,,,0.00,Wunderground v.1.15,2013-02-02 00:30:00,
2013-02-01 16:35:00,59.9,29.2,30.49,NNW,348,0.0,8.0,31,0.00,,,0.00,Wunderground v.1.15,2013-02-02 00:35:00,
2013-02-01 16:40:00,59.8,29.1,30.49,NNW,348,0.0,6.0,31,0.00,,,0.00,Wunderground v.1.15,2013-02-02 00:40:00,
2013-02-01 16:45:00,59.6,29.7,30.49,NNW,348,0.0,6.0,32,0.00,,,0.00,Wunderground v.1.15,2013-02-02 00:45:00,
2013-02-01 16:55:00,59.1,30.0,30.49,NNW,348,0.0,6.0,33,0.00,,,0.00,Wunderground v.1.15,2013-02-02 00:55:00,
2013-02-01 17:00:00,58.8,29.7,30.49,NNW,348,0.0,6.0,33,0.00,,,0.00,Wunderground v.1.15,2013-02-02 01:00:00,
2013-02-01 17:05:00,58.6,29.6,30.49,NNW,348,0.0,6.0,33,0.00,,,0.00,Wunderground v.1.15,2013-02-02 01:05:00,
2013-02-01 17:15:00,58.2,29.9,30.49,NNW,348,0.0,0.0,34,0.00,,,0.00,Wunderground v.1.15,2013-02-02 01:15:00,
2013-02-01 17:20:00,57.9,29.7,30.49,NNW,348,0.0,0.0,34,0.00,,,0.00,Wunderground v.1.15,2013-02-02 01:20:00,
2013-02-01 17:30:00,57.4,29.9,30.50,NNW,348,0.0,0.0,35,0.00,,,0.00,Wunderground v.1.15,2013-02-02 01:30:00,
2013-02-01 17:35:00,57.0,30.3,30.50,NNW,348,0.0,0.0,36,0.00,,,0.00,Wunderground v.1.15,2013-02-02 01:35:00,
2013-02-01 17:45:00,56.2,30.2,30.50,NNW,348,0.0,0.0,37,0.00,,,0.00,Wunderground v.1.15,2013-02-02 01:45:00,
2013-02-01 17:50:00,55.6,31.0,30.50,NNW,348,0.0,0.0,39,0.00,,,0.00,Wunderground v.1.15,2013-02-02 01:50:00,
2013-02-01 17:55:00,54.6,30.7,30.51,NNW,348,0.0,0.0,40,0.00,,,0.00,Wunderground v.1.15,2013-02-02 01:55:00,
2013-02-01 18:00:00,53.9,31.3,30.51,NNW,348,0.0,0.0,42,0.00,,,0.00,Wunderground v.1.15,2013-02-02 02:00:00,
2013-02-01 18:05:00,53.5,31.5,30.51,NNW,348,0.0,0.0,43,0.00,,,0.00,Wunderground v.1.15,2013-02-02 02:05:00,
2013-02-01 18:15:00,52.0,31.3,30.51,NNE,29,2.0,3.0,45,0.00,,,0.00,Wunderground v.1.15,2013-02-02 02:15:00,
2013-02-01 18:20:00,51.2,31.1,30.52,NE,40,3.0,5.0,46,0.00,,,0.00,Wunderground v.1.15,2013-02-02 02:20:00,
2013-02-01 18:30:00,50.9,30.8,30.52,NE,51,3.0,3.0,46,0.00,,,0.00,Wunderground v.1.15,2013-02-02 02:30:00,
2013-02-01 18:35:00,50.9,30.8,30.52,NE,51,2.0,5.0,46,0.00,,,0.00,Wunderground v.1.15,2013-02-02 02:35:00,
2013-02-01 18:40:00,51.1,30.5,30.53,NE,51,2.0,5.0,45,0.00,,,0.00,Wunderground v.1.15,2013-02-02 02:40:00,
2013-02-01 18:45:00,51.0,30.9,30.53,NE,51,3.0,5.0,46,0.00,,,0.00,Wunderground v.1.15,2013-02-02 02:45:00,
2013-02-01 18:55:00,50.9,30.8,30.53,NE,56,4.0,5.0,46,0.00,,,0.00,Wunderground v.1.15,2013-02-02 02:55:00,
2013-02-01 19:00:00,51.1,30.5,30.53,ENE,59,4.0,4.0,45,0.00,,,0.00,Wunderground v.1.15,2013-02-02 03:00:00,
2013-02-01 19:05:00,51.1,30.5,30.53,ENE,59,3.0,6.0,45,0.00,,,0.00,Wunderground v.1.15,2013-02-02 03:05:00,
2013-02-01 19:15:00,50.7,30.7,30.53,ENE,59,1.0,6.0,46,0.00,,,0.00,Wunderground v.1.15,2013-02-02 03:15:00,
2013-02-01 19:20:00,50.1,30.6,30.54,ENE,59,0.0,6.0,47,0.00,,,0.00,Wunderground v.1.15,2013-02-02 03:20:00,
2013-02-01 19:30:00,49.5,30.6,30.54,ENE,59,2.0,6.0,48,0.00,,,0.00,Wunderground v.1.15,2013-02-02 03:30:00,
2013-02-01 19:35:00,49.3,30.9,30.54,ENE,59,2.0,6.0,49,0.00,,,0.00,Wunderground v.1.15,2013-02-02 03:35:00,
2013-02-01 19:45:00,49.3,30.9,30.54,ENE,59,1.0,5.0,49,0.00,,,0.00,Wunderground v.1.15,2013-02-02 03:45:00,
2013-02-01 19:50:00,49.2,30.8,30.54,ENE,59,0.0,5.0,49,0.00,,,0.00,Wunderground v.1.15,2013-02-02 03:50:00,
2013-02-01 20:00:00,49.2,30.8,30.55,ENE,59,2.0,5.0,49,0.00,,,0.00,Wunderground v.1.15,2013-02-02 04:00:00,
2013-02-01 20:05:00,49.3,30.9,30.55,ENE,59,3.0,5.0,49,0.00,,,0.00,Wunderground v.1.15,2013-02-02 04:05:00,
2013-02-01 20:15:00,49.7,30.8,30.55,ENE,59,3.0,5.0,48,0.00,,,0.00,Wunderground v.1.15,2013-02-02 04:15:00,
2013-02-01 20:20:00,49.6,31.2,30.55,ENE,59,3.0,5.0,49,0.00,,,0.00,Wunderground v.1.15,2013-02-02 04:20:00,
2013-02-01 20:30:00,49.2,30.8,30.55,ENE,60,3.0,3.0,49,0.00,,,0.00,Wunderground v.1.15,2013-02-02 04:30:00,
2013-02-01 20:35:00,49.6,30.7,30.55,ENE,60,1.0,5.0,48,0.00,,,0.00,Wunderground v.1.15,2013-02-02 04:35:00,
2013-02-01 20:45:00,50.2,30.7,30.55,ENE,60,0.0,5.0,47,0.00,,,0.00,Wunderground v.1.15,2013-02-02 04:45:00,
2013-02-01 20:50:00,49.7,30.8,30.55,ENE,60,1.0,5.0,48,0.00,,,0.00,Wunderground v.1.15,2013-02-02 04:50:00,
2013-02-01 21:00:00,48.8,30.5,30.56,ENE,69,4.0,6.0,49,0.00,,,0.00,Wunderground v.1.15,2013-02-02 05:00:00,
2013-02-01 21:05:00,48.8,30.5,30.56,ENE,73,5.0,7.0,49,0.00,,,0.00,Wunderground v.1.15,2013-02-02 05:05:00,
2013-02-01 21:10:00,48.9,30.6,30.56,ENE,73,5.0,7.0,49,0.00,,,0.00,Wunderground v.1.15,2013-02-02 05:10:00,
2013-02-01 21:15:00,48.6,30.3,30.56,ENE,74,5.0,7.0,49,0.00,,,0.00,Wunderground v.1.15,2013-02-02 05:15:00,
2013-02-01 21:20:00,48.4,30.1,30.56,East,84,5.0,7.0,49,0.00,,,0.00,Wunderground v.1.15,2013-02-02 05:20:00,
2013-02-01 21:25:00,49.1,30.2,30.56,East,84,5.0,7.0,48,0.00,,,0.00,Wunderground v.1.15,2013-02-02 05:25:00,
2013-02-01 21:30:00,49.6,29.6,30.56,East,84,4.0,4.0,46,0.00,,,0.00,Wunderground v.1.15,2013-02-02 05:30:00,
2013-02-01 21:35:00,49.8,29.8,30.56,East,84,3.0,8.0,46,0.00,,,0.00,Wunderground v.1.15,2013-02-02 05:35:00,
2013-02-01 21:40:00,49.9,29.9,30.56,East,84,2.0,2.0,46,0.00,,,0.00,Wunderground v.1.15,2013-02-02 05:40:00,
2013-02-01 21:45:00,49.8,29.8,30.56,East,84,1.0,3.0,46,0.00,,,0.00,Wunderground v.1.15,2013-02-02 05:45:00,
2013-02-01 21:55:00,49.0,29.6,30.57,East,84,3.0,8.0,47,0.00,,,0.00,Wunderground v.1.15,2013-02-02 05:55:00,
2013-02-01 22:00:00,48.2,29.9,30.57,East,84,4.0,8.0,49,0.00,,,0.00,Wunderground v.1.15,2013-02-02 06:00:00,
2013-02-01 22:05:00,47.6,29.4,30.56,East,84,5.0,8.0,49,0.00,,,0.00,Wunderground v.1.15,2013-02-02 06:05:00,
2013-02-01 22:15:00,48.8,29.4,30.57,East,84,5.0,7.0,47,0.00,,,0.00,Wunderground v.1.15,2013-02-02 06:15:00,
2013-02-01 22:20:00,49.2,29.3,30.57,East,84,3.0,7.0,46,0.00,,,0.00,Wunderground v.1.15,2013-02-02 06:20:00,
2013-02-01 22:30:00,49.2,29.3,30.57,East,84,3.0,7.0,46,0.00,,,0.00,Wunderground v.1.15,2013-02-02 06:30:00,
2013-02-01 22:35:00,48.5,29.2,30.57,East,84,4.0,7.0,47,0.00,,,0.00,Wunderground v.1.15,2013-02-02 06:35:00,
2013-02-01 22:45:00,47.7,28.9,30.57,East,84,4.0,7.0,48,0.00,,,0.00,Wunderground v.1.15,2013-02-02 06:45:00,
2013-02-01 22:55:00,47.4,29.2,30.58,East,84,4.0,5.0,49,0.00,,,0.00,Wunderground v.1.15,2013-02-02 06:55:00,
2013-02-01 23:00:00,46.6,28.9,30.57,East,84,4.0,7.0,50,0.00,,,0.00,Wunderground v.1.15,2013-02-02 07:00:00,
2013-02-01 23:05:00,46.5,28.8,30.57,East,84,5.0,7.0,50,0.00,,,0.00,Wunderground v.1.15,2013-02-02 07:05:00,
2013-02-01 23:15:00,47.7,28.9,30.57,East,84,4.0,6.0,48,0.00,,,0.00,Wunderground v.1.15,2013-02-02 07:15:00,
2013-02-01 23:20:00,48.1,28.8,30.57,East,84,3.0,6.0,47,0.00,,,0.00,Wunderground v.1.15,2013-02-02 07:20:00,
2013-02-01 23:30:00,49.4,28.9,30.57,East,89,5.0,6.0,45,0.00,,,0.00,Wunderground v.1.15,2013-02-02 07:30:00,
2013-02-01 23:35:00,49.4,28.9,30.57,East,98,5.0,8.0,45,0.00,,,0.00,Wunderground v.1.15,2013-02-02 07:35:00,
2013-02-01 23:45:00,49.9,28.3,30.57,East,94,5.0,8.0,43,0.00,,,0.00,Wunderground v.1.15,2013-02-02 07:45:00,
2013-02-01 23:50:00,49.7,28.6,30.57,East,94,4.0,8.0,44,0.00,,,0.00,Wunderground v.1.15,2013-02-02 07:50:00,